createdAt,value
2023-03-10T00:00:05.763Z,19.31
2023-03-10T00:01:05.764Z,19.30
2023-03-10T00:02:05.778Z,19.33
2023-03-10T00:03:05.803Z,19.31
2023-03-10T00:04:05.897Z,19.30
2023-03-10T00:05:05.822Z,19.28
2023-03-10T00:06:05.880Z,19.27
2023-03-10T00:07:05.904Z,19.25
2023-03-10T00:08:05.954Z,19.29
2023-03-10T00:09:05.986Z,19.29
2023-03-10T00:10:06.035Z,19.28
2023-03-10T00:11:06.058Z,19.31
2023-03-10T00:12:06.114Z,19.26
2023-03-10T00:13:06.155Z,19.26
2023-03-10T00:14:06.235Z,19.26
2023-03-10T00:15:06.253Z,19.21
2023-03-10T00:16:06.335Z,19.23
2023-03-10T00:17:06.285Z,19.27
2023-03-10T00:18:06.322Z,19.24
2023-03-10T00:19:06.329Z,19.23
2023-03-10T00:20:06.368Z,19.21
2023-03-10T00:21:06.379Z,19.17
2023-03-10T00:22:06.410Z,19.20
2023-03-10T00:23:06.468Z,19.15
2023-03-10T00:24:06.456Z,19.21
2023-03-10T00:25:06.496Z,19.18
2023-03-10T00:26:06.513Z,19.21
2023-03-10T00:27:06.498Z,19.27
2023-03-10T00:28:06.526Z,19.22
2023-03-10T00:29:06.564Z,19.22
2023-03-10T00:30:06.575Z,19.16
2023-03-10T00:31:06.668Z,19.24
2023-03-10T00:32:06.624Z,19.18
2023-03-10T00:33:06.658Z,19.20
2023-03-10T00:34:06.675Z,19.25
2023-03-10T00:35:06.667Z,19.28
2023-03-10T00:36:06.734Z,19.29
2023-03-10T00:37:06.686Z,19.29
2023-03-10T00:38:06.746Z,19.28
2023-03-10T00:39:06.759Z,19.26
2023-03-10T00:40:06.788Z,19.26
2023-03-10T00:41:06.816Z,19.33
2023-03-10T00:42:06.832Z,19.33
2023-03-10T00:43:06.843Z,19.31
2023-03-10T00:44:06.887Z,19.31
2023-03-10T00:45:06.892Z,19.31
2023-03-10T00:46:07.012Z,19.34
2023-03-10T00:47:06.927Z,19.30
2023-03-10T00:48:06.942Z,19.30
2023-03-10T00:49:06.964Z,19.28
2023-03-10T00:50:06.988Z,19.26
2023-03-10T00:51:07.056Z,19.27
2023-03-10T00:52:07.053Z,19.26
2023-03-10T00:53:07.089Z,19.22
2023-03-10T00:54:07.078Z,19.23
2023-03-10T00:55:07.092Z,19.21
2023-03-10T00:56:07.106Z,19.21
2023-03-10T00:57:07.165Z,19.28
2023-03-10T00:58:07.202Z,19.24
2023-03-10T00:59:07.210Z,19.24
2023-03-10T01:00:07.268Z,19.27
2023-03-10T01:01:07.273Z,19.26
2023-03-10T01:02:07.296Z,19.24
2023-03-10T01:03:07.315Z,19.30
2023-03-10T01:04:07.472Z,19.28
2023-03-10T01:05:07.401Z,19.30
2023-03-10T01:06:07.406Z,19.24
2023-03-10T01:07:07.441Z,19.27
2023-03-10T01:08:07.475Z,19.30
2023-03-10T01:09:07.512Z,19.27
2023-03-10T01:10:07.553Z,19.24
2023-03-10T01:11:07.561Z,19.27
2023-03-10T01:12:07.581Z,19.26
2023-03-10T01:13:07.615Z,19.21
2023-03-10T01:14:07.671Z,19.29
2023-03-10T01:15:07.660Z,19.26
2023-03-10T01:16:07.733Z,19.23
2023-03-10T01:17:07.686Z,19.24
2023-03-10T01:18:07.706Z,19.23
2023-03-10T01:19:08.679Z,19.31
2023-03-10T01:20:07.766Z,19.27
2023-03-10T01:21:07.793Z,19.29
2023-03-10T01:22:07.820Z,19.27
2023-03-10T01:23:07.853Z,19.35
2023-03-10T01:24:07.914Z,19.29
2023-03-10T01:25:07.967Z,19.31
2023-03-10T01:26:07.982Z,19.24
2023-03-10T01:27:08.005Z,19.26
2023-03-10T01:28:08.052Z,19.29
2023-03-10T01:29:08.104Z,19.27
2023-03-10T01:30:08.148Z,19.20
2023-03-10T01:31:08.223Z,19.20
2023-03-10T01:32:08.181Z,19.23
2023-03-10T01:33:08.211Z,19.18
2023-03-10T01:34:08.254Z,19.13
2023-03-10T01:35:08.279Z,19.16
2023-03-10T01:36:08.356Z,19.15
2023-03-10T01:37:08.313Z,19.16
2023-03-10T01:38:08.398Z,19.22
2023-03-10T01:39:08.362Z,19.23
2023-03-10T01:40:08.363Z,19.23
2023-03-10T01:41:08.386Z,19.20
2023-03-10T01:42:08.422Z,19.32
2023-03-10T01:43:08.435Z,19.25
2023-03-10T01:44:08.451Z,19.29
2023-03-10T01:45:08.485Z,19.28
2023-03-10T01:46:08.507Z,19.29
2023-03-10T01:47:08.534Z,19.25
2023-03-10T01:48:08.525Z,19.29
2023-03-10T01:49:08.568Z,19.28
2023-03-10T01:50:08.605Z,19.31
2023-03-10T01:51:08.583Z,19.28
2023-03-10T01:52:08.592Z,19.25
2023-03-10T01:53:08.592Z,19.32
2023-03-10T01:54:08.639Z,19.29
2023-03-10T01:55:08.658Z,19.29
2023-03-10T01:56:08.671Z,19.31
2023-03-10T01:57:08.670Z,19.31
2023-03-10T01:58:08.717Z,19.31
2023-03-10T01:59:08.714Z,19.28
2023-03-10T02:00:08.749Z,19.29
2023-03-10T02:01:08.832Z,19.30
2023-03-10T02:02:08.818Z,19.30
2023-03-10T02:03:08.754Z,19.33
2023-03-10T02:04:08.817Z,19.30
2023-03-10T02:05:08.846Z,19.28
2023-03-10T02:06:08.847Z,19.28
2023-03-10T02:07:08.896Z,19.28
2023-03-10T02:08:08.917Z,19.21
2023-03-10T02:09:08.913Z,19.25
2023-03-10T02:10:08.973Z,19.25
2023-03-10T02:11:08.981Z,19.18
2023-03-10T02:12:08.999Z,19.21
2023-03-10T02:13:09.052Z,19.24
2023-03-10T02:14:09.067Z,19.25
2023-03-10T02:15:09.111Z,19.24
2023-03-10T02:16:09.159Z,19.22
2023-03-10T02:17:09.141Z,19.28
2023-03-10T02:18:09.232Z,19.18
2023-03-10T02:19:09.161Z,19.16
2023-03-10T02:20:09.205Z,19.21
2023-03-10T02:21:09.282Z,19.21
2023-03-10T02:22:09.260Z,19.19
2023-03-10T02:23:09.258Z,19.21
2023-03-10T02:24:09.286Z,19.19
2023-03-10T02:25:09.290Z,19.25
2023-03-10T02:26:09.351Z,19.25
2023-03-10T02:27:09.404Z,19.18
2023-03-10T02:28:09.426Z,19.18
2023-03-10T02:29:09.426Z,19.10
2023-03-10T02:30:09.440Z,19.15
2023-03-10T02:31:09.448Z,19.11
2023-03-10T02:32:09.489Z,19.17
2023-03-10T02:33:09.470Z,19.16
2023-03-10T02:34:09.513Z,19.21
2023-03-10T02:35:09.531Z,19.20
2023-03-10T02:36:09.603Z,19.20
2023-03-10T02:37:09.562Z,19.15
2023-03-10T02:38:09.640Z,19.17
2023-03-10T02:39:09.612Z,19.18
2023-03-10T02:40:09.650Z,19.23
2023-03-10T02:41:09.651Z,19.27
2023-03-10T02:42:09.721Z,19.24
2023-03-10T02:43:09.785Z,19.24
2023-03-10T02:44:09.784Z,19.27
2023-03-10T02:45:09.752Z,19.32
2023-03-10T02:46:09.943Z,19.30
2023-03-10T02:47:09.817Z,19.29
2023-03-10T02:48:09.807Z,19.27
2023-03-10T02:49:09.838Z,19.15
2023-03-10T02:50:09.872Z,19.22
2023-03-10T02:51:09.872Z,19.27
2023-03-10T02:52:09.922Z,19.28
2023-03-10T02:53:09.947Z,19.31
2023-03-10T02:54:10.014Z,19.29
2023-03-10T02:55:10.017Z,19.37
2023-03-10T02:56:10.005Z,19.37
2023-03-10T02:57:10.073Z,19.33
2023-03-10T02:58:10.102Z,19.28
2023-03-10T02:59:10.108Z,19.33
2023-03-10T03:00:10.170Z,19.31
2023-03-10T03:01:10.751Z,19.26
2023-03-10T03:02:10.222Z,19.35
2023-03-10T03:03:10.188Z,19.29
2023-03-10T03:04:10.261Z,19.31
2023-03-10T03:05:10.277Z,19.34
2023-03-10T03:06:10.299Z,19.39
2023-03-10T03:07:10.276Z,19.31
2023-03-10T03:08:10.282Z,19.22
2023-03-10T03:09:10.364Z,19.24
2023-03-10T03:10:10.375Z,19.16
2023-03-10T03:11:10.380Z,19.23
2023-03-10T03:12:10.487Z,19.17
2023-03-10T03:13:10.486Z,19.24
2023-03-10T03:14:10.544Z,19.27
2023-03-10T03:15:10.565Z,19.30
2023-03-10T03:16:10.593Z,19.34
2023-03-10T03:17:10.603Z,19.33
2023-03-10T03:18:10.690Z,19.34
2023-03-10T03:19:10.749Z,19.28
2023-03-10T03:20:10.750Z,19.28
2023-03-10T03:21:10.790Z,19.34
2023-03-10T03:22:10.817Z,19.35
2023-03-10T03:23:10.865Z,19.44
2023-03-10T03:24:10.897Z,19.41
2023-03-10T03:25:10.976Z,19.40
2023-03-10T03:26:10.970Z,19.43
2023-03-10T03:27:11.020Z,19.38
2023-03-10T03:28:11.069Z,19.38
2023-03-10T03:29:11.168Z,19.34
2023-03-10T03:30:11.171Z,19.36
2023-03-10T03:31:11.211Z,19.35
2023-03-10T03:32:11.492Z,19.39
2023-03-10T03:33:11.365Z,19.41
2023-03-10T03:34:11.708Z,19.42
2023-03-10T03:35:11.462Z,19.39
2023-03-10T03:36:11.496Z,19.42
2023-03-10T03:37:11.574Z,19.42
2023-03-10T03:38:11.582Z,19.43
2023-03-10T03:39:11.677Z,19.41
2023-03-10T03:40:11.691Z,19.36
2023-03-10T03:41:11.744Z,19.38
2023-03-10T03:42:11.721Z,19.40
2023-03-10T03:43:11.788Z,19.37
2023-03-10T03:44:11.817Z,19.34
2023-03-10T03:45:11.870Z,19.38
2023-03-10T03:46:11.886Z,19.34
2023-03-10T03:47:11.887Z,19.25
2023-03-10T03:48:11.976Z,19.22
2023-03-10T03:49:12.003Z,19.24
2023-03-10T03:50:12.099Z,19.28
2023-03-10T03:51:12.066Z,19.31
2023-03-10T03:52:12.159Z,19.25
2023-03-10T03:53:12.143Z,19.25
2023-03-10T03:54:12.220Z,19.20
2023-03-10T03:55:12.272Z,19.13
2023-03-10T03:56:12.347Z,19.18
2023-03-10T03:57:12.397Z,19.17
2023-03-10T03:58:12.468Z,19.21
2023-03-10T03:59:12.537Z,19.29
2023-03-10T04:00:12.574Z,19.27
2023-03-10T04:01:12.600Z,19.29
2023-03-10T04:02:12.725Z,19.25
2023-03-10T04:03:12.774Z,19.25
2023-03-10T04:04:12.771Z,19.18
2023-03-10T04:05:12.833Z,19.29
2023-03-10T04:06:12.899Z,19.20
2023-03-10T04:07:12.973Z,19.24
2023-03-10T04:08:13.034Z,19.25
2023-03-10T04:09:13.082Z,19.36
2023-03-10T04:10:13.170Z,19.28
2023-03-10T04:11:13.191Z,19.37
2023-03-10T04:12:13.279Z,19.34
2023-03-10T04:13:13.351Z,19.34
2023-03-10T04:14:13.396Z,19.32
2023-03-10T04:15:13.471Z,19.23
2023-03-10T04:16:13.550Z,19.29
2023-03-10T04:17:13.582Z,19.30
2023-03-10T04:18:13.601Z,19.38
2023-03-10T04:19:13.707Z,19.36
2023-03-10T04:20:13.768Z,19.35
2023-03-10T04:21:13.824Z,19.36
2023-03-10T04:22:13.888Z,19.41
2023-03-10T04:23:13.918Z,19.32
2023-03-10T04:24:13.972Z,19.28
2023-03-10T04:25:14.055Z,19.19
2023-03-10T04:26:14.091Z,19.19
2023-03-10T04:27:14.162Z,19.17
2023-03-10T04:28:14.211Z,19.20
2023-03-10T04:29:14.302Z,19.25
2023-03-10T04:30:14.319Z,19.26
2023-03-10T04:31:14.425Z,19.29
2023-03-10T04:32:14.488Z,19.22
2023-03-10T04:33:14.525Z,19.25
2023-03-10T04:34:14.568Z,19.21
2023-03-10T04:35:14.710Z,19.15
2023-03-10T04:36:14.720Z,19.17
2023-03-10T04:37:14.756Z,19.18
2023-03-10T04:38:14.803Z,19.17
2023-03-10T04:39:14.859Z,19.15
2023-03-10T04:40:14.945Z,19.16
2023-03-10T04:41:14.979Z,19.18
2023-03-10T04:42:15.027Z,19.16
2023-03-10T04:43:15.086Z,19.12
2023-03-10T04:44:29.791Z,19.12
2023-03-10T04:45:16.077Z,19.09
2023-03-10T04:46:15.110Z,19.06
2023-03-10T04:47:15.118Z,19.09
2023-03-10T04:48:15.097Z,19.09
2023-03-10T04:49:15.106Z,19.07
2023-03-10T04:50:15.119Z,19.03
2023-03-10T04:51:15.103Z,19.01
2023-03-10T04:52:15.124Z,18.93
2023-03-10T04:53:15.126Z,18.94
2023-03-10T04:54:15.134Z,18.98
2023-03-10T04:55:15.170Z,18.94
2023-03-10T04:56:15.181Z,18.90
2023-03-10T04:57:15.140Z,18.88
2023-03-10T04:58:15.134Z,18.91
2023-03-10T04:59:15.170Z,18.87
2023-03-10T05:00:15.211Z,18.88
2023-03-10T05:01:15.250Z,18.87
2023-03-10T05:02:15.306Z,18.90
2023-03-10T05:03:15.260Z,18.89
2023-03-10T05:04:15.306Z,18.87
2023-03-10T05:05:15.330Z,18.88
2023-03-10T05:06:15.304Z,18.88
2023-03-10T05:07:15.351Z,18.86
2023-03-10T05:08:15.347Z,18.81
2023-03-10T05:09:15.433Z,18.78
2023-03-10T05:10:15.416Z,18.79
2023-03-10T05:11:15.475Z,18.83
2023-03-10T05:12:15.439Z,18.75
2023-03-10T05:13:15.495Z,18.74
2023-03-10T05:14:15.492Z,18.69
2023-03-10T05:15:15.567Z,18.75
2023-03-10T05:16:15.683Z,18.77
2023-03-10T05:17:15.644Z,18.78
2023-03-10T05:18:15.692Z,18.80
2023-03-10T05:19:15.714Z,18.87
2023-03-10T05:20:15.770Z,18.88
2023-03-10T05:21:15.770Z,18.87
2023-03-10T05:22:15.847Z,18.84
2023-03-10T05:23:15.869Z,18.82
2023-03-10T05:24:15.936Z,18.82
2023-03-10T05:25:15.938Z,18.85
2023-03-10T05:26:16.013Z,18.84
2023-03-10T05:27:16.019Z,18.84
2023-03-10T05:28:16.041Z,18.80
2023-03-10T05:29:16.107Z,18.85
2023-03-10T05:30:16.126Z,18.87
2023-03-10T05:31:16.230Z,18.87
2023-03-10T05:32:16.343Z,18.84
2023-03-10T05:33:16.239Z,18.87
2023-03-10T05:34:16.279Z,18.84
2023-03-10T05:35:16.269Z,18.84
2023-03-10T05:36:16.333Z,18.82
2023-03-10T05:37:16.379Z,18.88
2023-03-10T05:38:16.372Z,18.86
2023-03-10T05:39:16.386Z,18.88
2023-03-10T05:40:16.423Z,18.90
2023-03-10T05:41:16.436Z,18.81
2023-03-10T05:42:16.451Z,18.77
2023-03-10T05:43:17.734Z,18.80
2023-03-10T05:44:16.535Z,18.80
2023-03-10T05:45:16.546Z,18.82
2023-03-10T05:46:16.582Z,18.81
2023-03-10T05:47:16.613Z,18.81
2023-03-10T05:48:16.658Z,18.86
2023-03-10T05:49:16.664Z,18.82
2023-03-10T05:50:16.734Z,18.87
2023-03-10T05:51:16.789Z,18.87
2023-03-10T05:52:16.805Z,18.86
2023-03-10T05:53:16.850Z,18.86
2023-03-10T05:54:16.847Z,18.89
2023-03-10T05:55:16.872Z,18.89
2023-03-10T05:56:16.875Z,18.88
2023-03-10T05:57:16.890Z,18.88
2023-03-10T05:58:16.918Z,18.88
2023-03-10T05:59:16.928Z,18.88
2023-03-10T06:01:24.029Z,18.83
2023-03-10T06:02:17.020Z,18.82
2023-03-10T06:03:17.191Z,18.89
2023-03-10T06:04:17.067Z,18.84
2023-03-10T06:05:17.032Z,18.88
2023-03-10T06:06:17.025Z,18.90
2023-03-10T06:07:16.995Z,18.88
2023-03-10T06:08:17.029Z,18.87
2023-03-10T06:09:17.064Z,18.86
2023-03-10T06:10:17.056Z,18.81
2023-03-10T06:11:17.028Z,18.81
2023-03-10T06:12:16.992Z,18.90
2023-03-10T06:13:17.068Z,18.88
2023-03-10T06:14:17.043Z,18.85
2023-03-10T06:15:16.991Z,18.88
2023-03-10T06:16:17.059Z,18.91
2023-03-10T06:17:19.436Z,18.77
2023-03-10T06:18:17.004Z,18.85
2023-03-10T06:20:16.976Z,18.85
2023-03-10T06:21:16.996Z,18.80
2023-03-10T06:22:17.008Z,18.85
2023-03-10T06:23:17.050Z,18.86
2023-03-10T06:24:17.057Z,18.88
2023-03-10T06:25:16.992Z,18.89
2023-03-10T06:27:17.035Z,18.77
2023-03-10T06:28:17.009Z,18.78
2023-03-10T06:29:17.366Z,18.77
2023-03-10T06:30:17.033Z,18.77
2023-03-10T06:31:17.101Z,18.84
2023-03-10T06:32:17.068Z,18.77
2023-03-10T06:33:17.019Z,18.92
2023-03-10T06:34:17.317Z,19.25
2023-03-10T06:35:17.083Z,19.53
2023-03-10T06:36:17.105Z,20.09
2023-03-10T06:37:17.081Z,20.42
2023-03-10T06:38:17.156Z,20.91
2023-03-10T06:39:17.837Z,21.28
2023-03-10T06:40:17.024Z,20.91
2023-03-10T06:41:17.070Z,20.96
2023-03-10T06:42:17.077Z,21.30
2023-03-10T06:46:24.165Z,21.61
2023-03-10T06:49:17.364Z,21.46
2023-03-10T07:00:17.383Z,20.75
2023-03-10T07:24:17.374Z,20.13
2023-03-10T07:25:17.418Z,20.14
2023-03-10T07:26:17.487Z,20.02
2023-03-10T07:27:17.501Z,20.04
2023-03-10T07:28:17.590Z,19.96
2023-03-10T07:29:17.589Z,19.92
2023-03-10T07:30:17.601Z,19.93
2023-03-10T07:31:17.697Z,19.84
2023-03-10T07:32:17.690Z,19.87
2023-03-10T07:33:18.251Z,19.85
2023-03-10T07:34:17.674Z,19.85
2023-03-10T07:35:17.716Z,19.87
2023-03-10T07:36:17.811Z,19.87
2023-03-10T07:37:17.766Z,19.81
2023-03-10T07:38:17.767Z,19.84
2023-03-10T07:39:17.860Z,19.83
2023-03-10T07:40:18.366Z,19.87
2023-03-10T07:41:17.913Z,19.84
2023-03-10T07:42:17.980Z,19.86
2023-03-10T07:43:17.977Z,19.81
2023-03-10T07:45:18.073Z,19.83
2023-03-10T07:46:18.166Z,19.81
2023-03-10T07:47:18.138Z,19.75
2023-03-10T07:48:18.145Z,19.80
2023-03-10T07:49:18.903Z,19.72
2023-03-10T07:50:18.295Z,19.80
2023-03-10T07:51:18.284Z,19.72
2023-03-10T07:52:18.308Z,19.71
2023-03-10T07:53:18.382Z,19.74
2023-03-10T07:54:18.464Z,19.76
2023-03-10T07:55:18.500Z,19.71
2023-03-10T08:02:18.760Z,19.68
2023-03-10T08:03:18.840Z,19.68
2023-03-10T08:04:18.980Z,19.62
2023-03-10T08:05:18.946Z,19.64
2023-03-10T08:06:18.936Z,19.65
2023-03-10T08:07:18.970Z,19.62
2023-03-10T08:08:19.857Z,19.62
2023-03-10T08:09:19.096Z,19.62
2023-03-10T08:10:19.119Z,19.61
2023-03-10T08:11:19.214Z,19.56
2023-03-10T08:12:19.229Z,19.56
2023-03-10T08:13:19.386Z,19.55
2023-03-10T08:14:21.039Z,19.53
2023-03-10T08:15:19.340Z,19.53
2023-03-10T08:16:19.460Z,19.55
2023-03-10T08:17:19.448Z,19.47
2023-03-10T08:18:19.467Z,19.53
2023-03-10T08:19:19.499Z,19.49
2023-03-10T08:20:19.574Z,19.47
2023-03-10T08:21:19.580Z,19.49
2023-03-10T08:22:22.278Z,19.47
2023-03-10T08:24:19.629Z,19.41
2023-03-10T08:25:19.628Z,19.43
2023-03-10T08:26:19.614Z,19.37
2023-03-10T08:27:20.957Z,19.49
2023-03-10T08:28:19.591Z,19.76
2023-03-10T08:32:19.704Z,21.23
2023-03-10T08:33:19.574Z,20.35
2023-03-10T08:34:19.558Z,19.91
2023-03-10T08:38:19.592Z,22.74
2023-03-10T08:39:19.548Z,23.03
2023-03-10T08:40:21.946Z,23.38
2023-03-10T08:41:19.622Z,23.75
2023-03-10T08:42:19.725Z,22.55
2023-03-10T08:43:20.372Z,21.04
2023-03-10T08:44:19.786Z,21.33
2023-03-10T08:45:19.776Z,21.10
2023-03-10T08:46:19.908Z,21.06
2023-03-10T08:47:19.859Z,21.36
2023-03-10T08:48:19.860Z,21.46
2023-03-10T08:49:19.901Z,21.29
2023-03-10T08:50:19.903Z,21.08
2023-03-10T08:51:19.968Z,21.18
2023-03-10T08:52:19.971Z,21.38
2023-03-10T08:53:20.042Z,21.50
2023-03-10T08:54:20.075Z,21.63
2023-03-10T08:55:20.074Z,22.31
2023-03-10T08:56:20.110Z,23.56
2023-03-10T08:57:20.136Z,24.04
2023-03-10T08:58:20.193Z,23.74
2023-03-10T08:59:20.234Z,24.00
2023-03-10T09:00:20.287Z,24.01
2023-03-10T09:01:20.401Z,24.29
2023-03-10T09:02:20.448Z,24.36
2023-03-10T09:03:20.476Z,24.56
2023-03-10T09:04:20.484Z,24.72
2023-03-10T09:05:21.791Z,24.86
2023-03-10T09:06:20.584Z,24.93
2023-03-10T09:07:20.630Z,24.53
2023-03-10T09:08:20.653Z,22.69
2023-03-10T09:09:20.723Z,24.18
2023-03-10T09:10:20.761Z,24.66
2023-03-10T09:11:20.822Z,24.79
2023-03-10T09:12:20.831Z,24.67
2023-03-10T09:13:20.906Z,24.79
2023-03-10T09:14:20.939Z,24.81
2023-03-10T09:15:20.953Z,24.85
2023-03-10T09:16:21.041Z,24.95
2023-03-10T09:17:21.004Z,24.91
2023-03-10T09:18:21.041Z,25.12
2023-03-10T09:19:21.045Z,25.14
2023-03-10T09:20:21.093Z,25.18
2023-03-10T09:21:21.095Z,25.38
2023-03-10T09:22:21.114Z,25.55
2023-03-10T09:23:21.112Z,25.57
2023-03-10T09:24:21.118Z,25.48
2023-03-10T09:25:21.448Z,25.60
2023-03-10T09:26:21.154Z,25.74
2023-03-10T09:27:21.136Z,25.68
2023-03-10T09:28:21.195Z,25.70
2023-03-10T09:29:27.050Z,25.85
2023-03-10T09:30:22.191Z,25.98
2023-03-10T09:31:21.543Z,26.03
2023-03-10T09:32:21.235Z,26.05
2023-03-10T09:33:21.209Z,26.19
2023-03-10T09:34:21.049Z,26.03
2023-03-10T09:35:21.118Z,26.10
2023-03-10T09:36:21.589Z,26.07
2023-03-10T09:37:21.042Z,26.17
2023-03-10T09:38:21.018Z,26.26
2023-03-10T09:39:21.036Z,26.11
2023-03-10T09:40:20.991Z,26.00
2023-03-10T09:41:21.509Z,25.93
2023-03-10T09:42:29.195Z,25.89
2023-03-10T09:43:21.878Z,25.85
2023-03-10T09:44:20.878Z,25.93
2023-03-10T09:45:20.811Z,26.11
2023-03-10T09:46:20.893Z,26.12
2023-03-10T09:47:20.953Z,26.05
2023-03-10T09:48:20.767Z,26.09
2023-03-10T09:49:20.746Z,25.34
2023-03-10T09:50:20.704Z,25.32
2023-03-10T09:51:20.738Z,25.23
2023-03-10T09:52:20.703Z,25.16
2023-03-10T09:53:20.665Z,25.26
2023-03-10T09:54:20.655Z,25.25
2023-03-10T09:55:20.643Z,24.48
2023-03-10T09:56:20.662Z,25.26
2023-03-10T09:57:20.939Z,25.22
2023-03-10T09:58:20.632Z,25.44
2023-03-10T09:59:20.572Z,25.54
2023-03-10T10:00:20.535Z,25.51
2023-03-10T10:01:20.595Z,25.51
2023-03-10T10:02:20.566Z,25.42
2023-03-10T10:03:20.576Z,25.32
2023-03-10T10:04:20.800Z,25.33
2023-03-10T10:05:20.542Z,25.29
2023-03-10T10:06:20.533Z,25.30
2023-03-10T10:07:20.591Z,25.36
2023-03-10T10:08:20.589Z,25.32
2023-03-10T10:09:20.606Z,25.25
2023-03-10T10:12:20.615Z,24.51
2023-03-10T10:13:20.564Z,24.00
2023-03-10T10:14:32.055Z,23.88
2023-03-10T10:15:21.568Z,20.99
2023-03-10T10:16:33.600Z,19.78
2023-03-10T10:17:21.563Z,19.49
2023-03-10T10:18:23.280Z,19.41
2023-03-10T10:22:20.926Z,18.86
2023-03-10T10:23:20.493Z,18.90
2023-03-10T10:24:20.441Z,18.87
2023-03-10T10:25:20.449Z,18.92
2023-03-10T10:26:20.434Z,19.09
2023-03-10T10:27:22.376Z,19.00
2023-03-10T10:28:20.441Z,18.87
2023-03-10T10:29:20.482Z,18.90
2023-03-10T10:30:20.425Z,18.88
2023-03-10T10:31:20.586Z,18.90
2023-03-10T10:32:20.497Z,18.98
2023-03-10T10:33:20.963Z,18.98
2023-03-10T10:34:20.461Z,18.97
2023-03-10T10:35:20.466Z,18.97
2023-03-10T10:36:20.476Z,19.01
2023-03-10T10:37:20.443Z,19.05
2023-03-10T10:38:20.422Z,19.55
2023-03-10T10:39:20.444Z,19.58
2023-03-10T10:40:20.438Z,19.77
2023-03-10T10:41:20.456Z,20.39
2023-03-10T10:42:20.465Z,21.87
2023-03-10T10:43:20.961Z,22.42
2023-03-10T10:44:20.479Z,22.84
2023-03-10T10:45:20.429Z,22.70
2023-03-10T10:46:20.512Z,22.99
2023-03-10T10:47:20.458Z,23.02
2023-03-10T10:48:20.471Z,23.13
2023-03-10T10:49:20.420Z,21.79
2023-03-10T10:50:20.429Z,22.65
2023-03-10T10:51:20.440Z,22.89
2023-03-10T10:52:20.407Z,22.43
2023-03-10T10:53:20.434Z,22.88
2023-03-10T10:55:20.394Z,23.62
2023-03-10T11:06:20.305Z,21.51
2023-03-10T11:07:20.269Z,21.64
2023-03-10T11:08:20.235Z,21.36
2023-03-10T11:09:20.292Z,21.08
2023-03-10T11:10:20.387Z,20.65
2023-03-10T11:11:20.233Z,20.66
2023-03-10T11:12:20.600Z,20.49
2023-03-10T11:13:20.261Z,20.76
2023-03-10T11:14:20.306Z,21.28
2023-03-10T11:15:20.311Z,20.84
2023-03-10T11:16:20.276Z,20.83
2023-03-10T11:17:20.336Z,20.86
2023-03-10T11:18:20.479Z,20.85
2023-03-10T11:19:20.421Z,21.06
2023-03-10T11:20:20.452Z,21.10
2023-03-10T11:21:20.470Z,21.16
2023-03-10T11:22:20.505Z,21.26
2023-03-10T11:23:20.555Z,21.29
2023-03-10T11:24:20.624Z,21.57
2023-03-10T11:25:20.660Z,21.26
2023-03-10T11:26:20.700Z,21.23
2023-03-10T11:27:20.754Z,21.30
2023-03-10T11:28:20.762Z,21.34
2023-03-10T11:29:20.865Z,21.58
2023-03-10T11:30:20.840Z,21.79
2023-03-10T11:31:20.973Z,21.62
2023-03-10T11:32:20.995Z,21.59
2023-03-10T11:33:20.955Z,21.61
2023-03-10T11:34:21.058Z,21.86
2023-03-10T11:35:21.482Z,22.67
2023-03-10T11:36:21.123Z,22.89
2023-03-10T11:37:21.110Z,23.18
2023-03-10T11:38:21.510Z,23.41
2023-03-10T11:39:21.205Z,23.46
2023-03-10T11:40:21.214Z,23.52
2023-03-10T11:41:21.299Z,23.58
2023-03-10T11:42:21.325Z,23.55
2023-03-10T11:43:21.665Z,23.52
2023-03-10T11:44:21.402Z,23.51
2023-03-10T11:45:21.403Z,23.53
2023-03-10T11:46:21.438Z,23.48
2023-03-10T11:47:21.505Z,23.46
2023-03-10T11:48:21.536Z,23.45
2023-03-10T11:50:21.587Z,23.33
2023-03-10T11:51:21.607Z,23.36
2023-03-10T11:52:21.650Z,23.33
2023-03-10T11:54:21.936Z,23.25
2023-03-10T11:55:21.683Z,23.25
2023-03-10T11:58:21.768Z,23.16
2023-03-10T11:59:21.852Z,23.16
2023-03-10T12:00:21.825Z,23.14
2023-03-10T12:01:21.874Z,23.09
2023-03-10T12:11:22.072Z,22.90
2023-03-10T12:15:22.105Z,22.76
2023-03-10T12:16:22.209Z,22.74
2023-03-10T12:17:22.164Z,22.68
2023-03-10T12:19:22.227Z,22.70
2023-03-10T12:20:22.184Z,22.70
2023-03-10T12:21:22.277Z,22.64
2023-03-10T12:22:22.242Z,22.68
2023-03-10T12:23:22.271Z,22.64
2023-03-10T12:24:22.315Z,22.57
2023-03-10T12:25:22.330Z,22.59
2023-03-10T12:26:22.323Z,22.64
2023-03-10T12:27:22.361Z,22.62
2023-03-10T12:28:22.355Z,22.55
2023-03-10T12:29:22.463Z,22.58
2023-03-10T12:30:23.941Z,22.59
2023-03-10T12:31:22.407Z,22.57
2023-03-10T12:32:23.098Z,22.55
2023-03-10T12:33:22.322Z,22.57
2023-03-10T12:34:22.546Z,22.51
2023-03-10T12:35:22.329Z,22.53
2023-03-10T12:36:23.273Z,22.53
2023-03-10T12:37:22.324Z,22.49
2023-03-10T12:38:22.397Z,22.45
2023-03-10T12:39:22.488Z,22.50
2023-03-10T12:40:22.259Z,22.45
2023-03-10T12:41:22.275Z,22.50
2023-03-10T12:42:23.283Z,22.42
2023-03-10T12:43:22.287Z,22.42
2023-03-10T12:44:22.289Z,22.39
2023-03-10T12:45:22.251Z,22.39
2023-03-10T12:46:22.278Z,22.39
2023-03-10T12:47:22.284Z,22.36
2023-03-10T13:26:27.831Z,22.00
2023-03-10T13:27:27.789Z,21.95
2023-03-10T13:28:27.747Z,21.93
2023-03-10T13:29:27.775Z,22.02
2023-03-10T13:30:27.806Z,22.03
2023-03-10T13:31:27.829Z,21.93
2023-03-10T13:32:27.781Z,21.99
2023-03-10T13:33:27.791Z,22.00
2023-03-10T13:34:27.737Z,22.00
2023-03-10T13:35:27.749Z,22.03
2023-03-10T13:36:27.750Z,21.98
2023-03-10T13:37:27.721Z,22.00
2023-03-10T13:38:27.723Z,21.97
2023-03-10T13:39:27.968Z,21.95
2023-03-10T13:40:27.724Z,22.02
2023-03-10T13:41:27.717Z,22.00
2023-03-10T13:42:40.941Z,22.02
2023-03-10T13:43:28.694Z,22.05
2023-03-10T13:44:27.650Z,22.02
2023-03-10T13:45:28.946Z,22.08
2023-03-10T13:46:27.833Z,21.97
2023-03-10T13:47:27.672Z,22.02
2023-03-10T13:48:27.653Z,22.02
2023-03-10T13:49:27.665Z,22.03
2023-03-10T13:50:27.673Z,22.07
2023-03-10T13:51:29.141Z,22.07
2023-03-10T13:52:27.623Z,22.05
2023-03-10T13:53:27.630Z,22.05
2023-03-10T13:54:27.591Z,22.01
2023-03-10T13:55:27.619Z,22.09
2023-03-10T13:56:27.691Z,22.07
2023-03-10T13:57:28.549Z,22.06
2023-03-10T13:58:27.566Z,22.06
2023-03-10T13:59:27.578Z,22.01
2023-03-10T14:00:27.582Z,22.07
2023-03-10T14:01:27.682Z,22.11
2023-03-10T14:02:27.572Z,22.09
2023-03-10T14:03:28.959Z,22.13
2023-03-10T14:04:27.529Z,22.12
2023-03-10T14:05:27.546Z,22.13
2023-03-10T14:06:27.538Z,22.12
2023-03-10T14:07:27.542Z,22.11
2023-03-10T14:08:27.507Z,22.30
2023-03-10T14:09:27.576Z,22.32
2023-03-10T14:10:27.614Z,22.44
2023-03-10T14:11:27.621Z,22.54
2023-03-10T14:12:27.578Z,22.66
2023-03-10T14:13:27.563Z,22.94
2023-03-10T14:14:27.630Z,22.99
2023-03-10T14:15:27.630Z,23.03
2023-03-10T14:16:27.678Z,23.10
2023-03-10T14:17:27.702Z,22.98
2023-03-10T14:18:27.731Z,23.16
2023-03-10T14:19:27.654Z,23.19
2023-03-10T14:20:27.708Z,23.28
2023-03-10T14:21:27.702Z,23.28
2023-03-10T14:22:27.684Z,23.36
2023-03-10T14:23:27.719Z,23.27
2023-03-10T14:24:27.718Z,23.31
2023-03-10T14:25:27.767Z,23.33
2023-03-10T14:26:27.809Z,23.31
2023-03-10T14:27:27.761Z,23.36
2023-03-10T14:28:27.829Z,23.33
2023-03-10T14:29:27.860Z,23.33
2023-03-10T15:15:28.691Z,23.47
2023-03-10T15:17:28.665Z,23.49
2023-03-10T15:18:28.789Z,23.47
2023-03-10T15:19:28.727Z,23.49
2023-03-10T15:20:28.805Z,23.46
2023-03-10T15:21:28.778Z,23.50
2023-03-10T15:22:28.758Z,23.49
2023-03-10T15:24:28.824Z,23.49
2023-03-10T15:25:28.876Z,23.46
2023-03-10T15:26:28.887Z,23.49
2023-03-10T15:27:28.871Z,23.45
2023-03-10T15:28:28.877Z,23.49
2023-03-10T15:29:28.956Z,23.50
2023-03-10T15:30:28.963Z,23.50
2023-03-10T15:31:28.997Z,23.49
2023-03-10T15:32:28.994Z,23.47
2023-03-10T15:33:28.990Z,23.44
2023-03-10T15:34:28.993Z,23.43
2023-03-10T15:35:29.029Z,23.49
2023-03-10T15:36:29.054Z,23.45
2023-03-10T15:37:29.040Z,23.46
2023-03-10T15:38:29.059Z,23.43
2023-03-10T15:39:32.312Z,23.42
2023-03-10T15:40:29.083Z,23.43
2023-03-10T15:41:29.067Z,23.37
2023-03-10T15:42:29.049Z,23.44
2023-03-10T15:43:29.099Z,23.40
2023-03-10T15:44:29.071Z,23.36
2023-03-10T15:45:29.078Z,23.34